Aviation Digital Data Service (ADDS)

Output produced by METARs form (2240 UTC 30 March 2017)
found at http://www.aviationweather.gov/adds/metars/
 
VGEG 301700Z 18010KT 5000 SCT018 BKN100 27/23 Q1010 NOSIG
TAF VGEG 301700Z 3018/3124 24012KT 4000 FEW018 
     BECMG 3023/3101 12008KT 3800 HZ SCT015 
     BECMG 3103/3105 23015KT 4500 SCT018 
     TEMPO 3111/3118 27025G35KT 2500 RA/TSRA SCT008 FEW026CB OVC090 
     BECMG 3122/3124 30010KT 4000 SCT013